sensor_id;sensor_type;location;lat;lon;timestamp;P1;durP1;ratioP1;P2;durP2;ratioP2
70560;SDS011;58109;53.570;10.084;2022-12-28T00:03:35;10.03;;;4.10;;
70560;SDS011;58109;53.570;10.084;2022-12-28T00:06:03;9.50;;;4.37;;
70560;SDS011;58109;53.570;10.084;2022-12-28T00:08:31;10.27;;;3.20;;
70560;SDS011;58109;53.570;10.084;2022-12-28T00:11:04;11.17;;;3.00;;
70560;SDS011;58109;53.570;10.084;2022-12-28T00:13:34;9.80;;;3.57;;
70560;SDS011;58109;53.570;10.084;2022-12-28T00:16:07;11.80;;;3.47;;
70560;SDS011;58109;53.570;10.084;2022-12-28T00:18:33;8.13;;;3.07;;
70560;SDS011;58109;53.570;10.084;2022-12-28T00:21:01;10.35;;;3.03;;
70560;SDS011;58109;53.570;10.084;2022-12-28T00:23:27;4.77;;;2.63;;
70560;SDS011;58109;53.570;10.084;2022-12-28T00:25:55;8.83;;;3.03;;
70560;SDS011;58109;53.570;10.084;2022-12-28T00:28:21;12.30;;;2.73;;
70560;SDS011;58109;53.570;10.084;2022-12-28T00:30:49;5.23;;;2.77;;
70560;SDS011;58109;53.570;10.084;2022-12-28T00:33:14;14.00;;;3.00;;
70560;SDS011;58109;53.570;10.084;2022-12-28T00:35:42;7.13;;;2.63;;
70560;SDS011;58109;53.570;10.084;2022-12-28T00:38:10;6.27;;;1.90;;
70560;SDS011;58109;53.570;10.084;2022-12-28T00:40:35;8.90;;;2.60;;
70560;SDS011;58109;53.570;10.084;2022-12-28T00:43:01;9.93;;;2.90;;
70560;SDS011;58109;53.570;10.084;2022-12-28T00:45:34;6.70;;;2.40;;
70560;SDS011;58109;53.570;10.084;2022-12-28T00:47:59;13.20;;;2.50;;
70560;SDS011;58109;53.570;10.084;2022-12-28T00:50:25;8.23;;;2.37;;
70560;SDS011;58109;53.570;10.084;2022-12-28T00:52:50;10.03;;;2.57;;
70560;SDS011;58109;53.570;10.084;2022-12-28T00:55:16;10.63;;;2.73;;
70560;SDS011;58109;53.570;10.084;2022-12-28T00:57:41;6.73;;;2.23;;
70560;SDS011;58109;53.570;10.084;2022-12-28T01:00:07;5.07;;;2.43;;
70560;SDS011;58109;53.570;10.084;2022-12-28T01:02:33;7.33;;;1.70;;
70560;SDS011;58109;53.570;10.084;2022-12-28T01:04:58;5.93;;;1.90;;
70560;SDS011;58109;53.570;10.084;2022-12-28T01:07:24;6.20;;;2.57;;
70560;SDS011;58109;53.570;10.084;2022-12-28T01:09:49;7.20;;;2.30;;
70560;SDS011;58109;53.570;10.084;2022-12-28T01:12:17;3.57;;;2.00;;
70560;SDS011;58109;53.570;10.084;2022-12-28T01:14:45;6.63;;;2.67;;
70560;SDS011;58109;53.570;10.084;2022-12-28T01:17:10;4.43;;;1.93;;
70560;SDS011;58109;53.570;10.084;2022-12-28T01:19:38;6.93;;;1.60;;
70560;SDS011;58109;53.570;10.084;2022-12-28T01:22:03;5.87;;;2.00;;
70560;SDS011;58109;53.570;10.084;2022-12-28T01:24:28;10.37;;;1.90;;
70560;SDS011;58109;53.570;10.084;2022-12-28T01:26:54;6.07;;;1.90;;
70560;SDS011;58109;53.570;10.084;2022-12-28T01:29:21;6.10;;;1.80;;
70560;SDS011;58109;53.570;10.084;2022-12-28T01:31:49;6.20;;;1.93;;
70560;SDS011;58109;53.570;10.084;2022-12-28T01:34:14;3.80;;;1.70;;
70560;SDS011;58109;53.570;10.084;2022-12-28T01:36:40;7.27;;;1.70;;
70560;SDS011;58109;53.570;10.084;2022-12-28T01:39:05;6.90;;;1.87;;
70560;SDS011;58109;53.570;10.084;2022-12-28T01:41:31;6.03;;;1.67;;
70560;SDS011;58109;53.570;10.084;2022-12-28T01:49:10;9.23;;;1.70;;
70560;SDS011;58109;53.570;10.084;2022-12-28T01:51:47;4.72;;;1.60;;
70560;SDS011;58109;53.570;10.084;2022-12-28T01:54:18;4.20;;;1.38;;
70560;SDS011;58109;53.570;10.084;2022-12-28T01:56:45;6.57;;;1.50;;
70560;SDS011;58109;53.570;10.084;2022-12-28T01:59:11;6.17;;;1.83;;
70560;SDS011;58109;53.570;10.084;2022-12-28T02:01:37;9.13;;;2.17;;
70560;SDS011;58109;53.570;10.084;2022-12-28T02:04:02;3.47;;;1.30;;
70560;SDS011;58109;53.570;10.084;2022-12-28T02:06:29;12.00;;;2.10;;
70560;SDS011;58109;53.570;10.084;2022-12-28T02:09:02;6.13;;;1.87;;
70560;SDS011;58109;53.570;10.084;2022-12-28T02:11:30;3.83;;;1.23;;
70560;SDS011;58109;53.570;10.084;2022-12-28T02:13:55;11.07;;;2.17;;
70560;SDS011;58109;53.570;10.084;2022-12-28T02:16:21;9.53;;;1.60;;
70560;SDS011;58109;53.570;10.084;2022-12-28T02:18:47;5.37;;;1.80;;
70560;SDS011;58109;53.570;10.084;2022-12-28T02:21:21;6.67;;;1.53;;
70560;SDS011;58109;53.570;10.084;2022-12-28T02:37:26;8.23;;;1.93;;
70560;SDS011;58109;53.570;10.084;2022-12-28T02:39:57;4.97;;;1.50;;
70560;SDS011;58109;53.570;10.084;2022-12-28T02:42:25;5.53;;;1.30;;
70560;SDS011;58109;53.570;10.084;2022-12-28T02:44:52;4.80;;;1.63;;
70560;SDS011;58109;53.570;10.084;2022-12-28T02:47:37;9.90;;;1.80;;
70560;SDS011;58109;53.570;10.084;2022-12-28T02:50:23;3.45;;;1.90;;
70560;SDS011;58109;53.570;10.084;2022-12-28T02:56:21;10.95;;;2.30;;
70560;SDS011;58109;53.570;10.084;2022-12-28T02:59:08;3.63;;;1.40;;
70560;SDS011;58109;53.570;10.084;2022-12-28T03:01:47;6.57;;;1.40;;
70560;SDS011;58109;53.570;10.084;2022-12-28T03:07:08;7.97;;;1.80;;
70560;SDS011;58109;53.570;10.084;2022-12-28T03:12:47;9.30;;;2.10;;
70560;SDS011;58109;53.570;10.084;2022-12-28T03:15:35;4.93;;;2.07;;
70560;SDS011;58109;53.570;10.084;2022-12-28T03:18:09;3.43;;;1.80;;
70560;SDS011;58109;53.570;10.084;2022-12-28T03:20:56;9.10;;;2.20;;
70560;SDS011;58109;53.570;10.084;2022-12-28T03:23:41;6.17;;;1.50;;
70560;SDS011;58109;53.570;10.084;2022-12-28T03:26:28;8.90;;;1.70;;
70560;SDS011;58109;53.570;10.084;2022-12-28T03:29:15;6.47;;;1.93;;
70560;SDS011;58109;53.570;10.084;2022-12-28T03:32:00;7.05;;;1.83;;
70560;SDS011;58109;53.570;10.084;2022-12-28T03:34:25;8.23;;;2.13;;
70560;SDS011;58109;53.570;10.084;2022-12-28T03:36:53;2.37;;;1.33;;
70560;SDS011;58109;53.570;10.084;2022-12-28T03:42:00;11.97;;;2.00;;
70560;SDS011;58109;53.570;10.084;2022-12-28T03:44:49;7.57;;;1.97;;
70560;SDS011;58109;53.570;10.084;2022-12-28T03:47:18;4.73;;;1.87;;
70560;SDS011;58109;53.570;10.084;2022-12-28T03:49:45;6.40;;;1.30;;
70560;SDS011;58109;53.570;10.084;2022-12-28T03:52:11;7.60;;;2.07;;
70560;SDS011;58109;53.570;10.084;2022-12-28T03:54:36;6.83;;;1.80;;
70560;SDS011;58109;53.570;10.084;2022-12-28T03:57:06;6.47;;;1.40;;
70560;SDS011;58109;53.570;10.084;2022-12-28T03:59:31;3.53;;;1.70;;
70560;SDS011;58109;53.570;10.084;2022-12-28T04:01:56;6.80;;;1.37;;
70560;SDS011;58109;53.570;10.084;2022-12-28T04:04:22;5.90;;;1.80;;
70560;SDS011;58109;53.570;10.084;2022-12-28T04:06:47;9.30;;;1.80;;
70560;SDS011;58109;53.570;10.084;2022-12-28T04:09:13;10.40;;;1.60;;
70560;SDS011;58109;53.570;10.084;2022-12-28T04:11:40;13.63;;;1.83;;
70560;SDS011;58109;53.570;10.084;2022-12-28T04:14:08;14.73;;;2.23;;
70560;SDS011;58109;53.570;10.084;2022-12-28T04:16:34;9.30;;;1.97;;
70560;SDS011;58109;53.570;10.084;2022-12-28T04:18:59;4.37;;;1.73;;
70560;SDS011;58109;53.570;10.084;2022-12-28T04:21:24;5.90;;;2.13;;
70560;SDS011;58109;53.570;10.084;2022-12-28T04:23:50;4.10;;;1.80;;
70560;SDS011;58109;53.570;10.084;2022-12-28T04:26:16;7.93;;;2.07;;
70560;SDS011;58109;53.570;10.084;2022-12-28T04:28:42;7.83;;;1.60;;
70560;SDS011;58109;53.570;10.084;2022-12-28T04:31:11;2.38;;;1.73;;
70560;SDS011;58109;53.570;10.084;2022-12-28T04:33:37;3.50;;;1.90;;
70560;SDS011;58109;53.570;10.084;2022-12-28T04:36:13;11.90;;;1.70;;
70560;SDS011;58109;53.570;10.084;2022-12-28T04:38:42;4.77;;;1.70;;
70560;SDS011;58109;53.570;10.084;2022-12-28T04:41:08;4.63;;;1.70;;
70560;SDS011;58109;53.570;10.084;2022-12-28T04:43:34;6.50;;;1.87;;
70560;SDS011;58109;53.570;10.084;2022-12-28T04:46:01;3.13;;;1.83;;
70560;SDS011;58109;53.570;10.084;2022-12-28T04:48:28;9.07;;;1.50;;
70560;SDS011;58109;53.570;10.084;2022-12-28T04:50:54;7.50;;;2.20;;
70560;SDS011;58109;53.570;10.084;2022-12-28T04:53:20;4.73;;;1.73;;
70560;SDS011;58109;53.570;10.084;2022-12-28T04:55:49;4.83;;;1.47;;
70560;SDS011;58109;53.570;10.084;2022-12-28T04:58:14;2.30;;;1.37;;
70560;SDS011;58109;53.570;10.084;2022-12-28T05:00:40;6.63;;;2.10;;
70560;SDS011;58109;53.570;10.084;2022-12-28T05:03:05;5.90;;;1.40;;
70560;SDS011;58109;53.570;10.084;2022-12-28T05:05:31;6.73;;;1.67;;
70560;SDS011;58109;53.570;10.084;2022-12-28T05:08:00;4.97;;;2.07;;
70560;SDS011;58109;53.570;10.084;2022-12-28T05:10:26;6.20;;;1.80;;
70560;SDS011;58109;53.570;10.084;2022-12-28T05:12:52;8.02;;;2.35;;
70560;SDS011;58109;53.570;10.084;2022-12-28T05:15:18;5.50;;;1.70;;
70560;SDS011;58109;53.570;10.084;2022-12-28T05:17:44;3.70;;;2.17;;
70560;SDS011;58109;53.570;10.084;2022-12-28T05:20:11;7.72;;;1.70;;
70560;SDS011;58109;53.570;10.084;2022-12-28T05:22:41;10.10;;;2.10;;
70560;SDS011;58109;53.570;10.084;2022-12-28T05:25:10;5.43;;;1.88;;
70560;SDS011;58109;53.570;10.084;2022-12-28T05:27:35;9.13;;;1.97;;
70560;SDS011;58109;53.570;10.084;2022-12-28T05:30:00;7.07;;;2.10;;
70560;SDS011;58109;53.570;10.084;2022-12-28T05:32:28;6.40;;;2.30;;
70560;SDS011;58109;53.570;10.084;2022-12-28T05:34:58;12.10;;;2.80;;
70560;SDS011;58109;53.570;10.084;2022-12-28T05:37:24;7.20;;;2.25;;
70560;SDS011;58109;53.570;10.084;2022-12-28T05:39:49;8.50;;;2.50;;
70560;SDS011;58109;53.570;10.084;2022-12-28T05:42:15;7.37;;;2.30;;
70560;SDS011;58109;53.570;10.084;2022-12-28T05:44:40;8.63;;;3.00;;
70560;SDS011;58109;53.570;10.084;2022-12-28T05:47:08;6.47;;;3.03;;
70560;SDS011;58109;53.570;10.084;2022-12-28T05:49:33;4.35;;;2.40;;
70560;SDS011;58109;53.570;10.084;2022-12-28T05:51:59;13.53;;;2.30;;
70560;SDS011;58109;53.570;10.084;2022-12-28T05:54:24;9.50;;;3.10;;
70560;SDS011;58109;53.570;10.084;2022-12-28T05:56:50;9.00;;;3.57;;
70560;SDS011;58109;53.570;10.084;2022-12-28T05:59:16;7.73;;;2.60;;
70560;SDS011;58109;53.570;10.084;2022-12-28T06:01:42;4.00;;;2.50;;
70560;SDS011;58109;53.570;10.084;2022-12-28T06:04:15;6.93;;;2.30;;
70560;SDS011;58109;53.570;10.084;2022-12-28T06:06:42;7.50;;;2.00;;
70560;SDS011;58109;53.570;10.084;2022-12-28T06:09:10;8.23;;;2.00;;
70560;SDS011;58109;53.570;10.084;2022-12-28T06:11:36;4.23;;;1.80;;
70560;SDS011;58109;53.570;10.084;2022-12-28T06:14:01;5.70;;;2.30;;
70560;SDS011;58109;53.570;10.084;2022-12-28T06:16:30;6.03;;;1.83;;
70560;SDS011;58109;53.570;10.084;2022-12-28T06:18:57;5.47;;;2.45;;
70560;SDS011;58109;53.570;10.084;2022-12-28T06:21:27;8.63;;;2.30;;
70560;SDS011;58109;53.570;10.084;2022-12-28T06:23:54;11.15;;;2.42;;
70560;SDS011;58109;53.570;10.084;2022-12-28T06:26:21;9.10;;;2.63;;
70560;SDS011;58109;53.570;10.084;2022-12-28T06:28:47;8.63;;;2.40;;
70560;SDS011;58109;53.570;10.084;2022-12-28T06:31:18;7.67;;;1.97;;
70560;SDS011;58109;53.570;10.084;2022-12-28T06:33:44;5.43;;;2.57;;
70560;SDS011;58109;53.570;10.084;2022-12-28T06:38:45;3.47;;;1.63;;
70560;SDS011;58109;53.570;10.084;2022-12-28T06:41:12;4.20;;;2.30;;
70560;SDS011;58109;53.570;10.084;2022-12-28T06:43:38;4.33;;;2.07;;
70560;SDS011;58109;53.570;10.084;2022-12-28T06:46:05;4.10;;;2.10;;
70560;SDS011;58109;53.570;10.084;2022-12-28T06:48:31;9.73;;;2.27;;
70560;SDS011;58109;53.570;10.084;2022-12-28T06:50:58;5.95;;;2.20;;
70560;SDS011;58109;53.570;10.084;2022-12-28T06:53:25;2.53;;;1.80;;
70560;SDS011;58109;53.570;10.084;2022-12-28T06:55:55;10.80;;;2.07;;
70560;SDS011;58109;53.570;10.084;2022-12-28T06:58:22;7.65;;;2.60;;
70560;SDS011;58109;53.570;10.084;2022-12-28T07:00:48;5.40;;;2.73;;
70560;SDS011;58109;53.570;10.084;2022-12-28T07:03:14;2.27;;;1.97;;
70560;SDS011;58109;53.570;10.084;2022-12-28T07:05:39;4.23;;;2.27;;
70560;SDS011;58109;53.570;10.084;2022-12-28T07:08:05;4.03;;;2.60;;
70560;SDS011;58109;53.570;10.084;2022-12-28T07:10:33;2.47;;;2.23;;
70560;SDS011;58109;53.570;10.084;2022-12-28T07:16:06;4.10;;;2.30;;
70560;SDS011;58109;53.570;10.084;2022-12-28T07:18:34;3.03;;;2.00;;
70560;SDS011;58109;53.570;10.084;2022-12-28T07:21:02;4.53;;;2.10;;
70560;SDS011;58109;53.570;10.084;2022-12-28T07:23:34;3.00;;;1.70;;
70560;SDS011;58109;53.570;10.084;2022-12-28T07:26:06;2.43;;;2.20;;
70560;SDS011;58109;53.570;10.084;2022-12-28T07:28:36;5.67;;;3.30;;
70560;SDS011;58109;53.570;10.084;2022-12-28T07:31:09;3.53;;;1.90;;
70560;SDS011;58109;53.570;10.084;2022-12-28T07:33:36;6.13;;;3.07;;
70560;SDS011;58109;53.570;10.084;2022-12-28T07:36:02;5.30;;;2.10;;
70560;SDS011;58109;53.570;10.084;2022-12-28T07:38:29;5.30;;;2.10;;
70560;SDS011;58109;53.570;10.084;2022-12-28T07:43:51;6.53;;;2.27;;
70560;SDS011;58109;53.570;10.084;2022-12-28T07:46:18;2.57;;;1.67;;
70560;SDS011;58109;53.570;10.084;2022-12-28T07:48:48;4.93;;;1.80;;
70560;SDS011;58109;53.570;10.084;2022-12-28T07:53:49;6.43;;;2.00;;
70560;SDS011;58109;53.570;10.084;2022-12-28T07:56:15;2.70;;;2.07;;
70560;SDS011;58109;53.570;10.084;2022-12-28T07:58:46;1.93;;;1.83;;
70560;SDS011;58109;53.570;10.084;2022-12-28T08:01:14;2.22;;;1.90;;
70560;SDS011;58109;53.570;10.084;2022-12-28T08:03:40;2.70;;;2.13;;
70560;SDS011;58109;53.570;10.084;2022-12-28T08:06:06;2.57;;;2.03;;
70560;SDS011;58109;53.570;10.084;2022-12-28T08:08:43;2.97;;;1.60;;
70560;SDS011;58109;53.570;10.084;2022-12-28T08:11:13;2.23;;;1.70;;
70560;SDS011;58109;53.570;10.084;2022-12-28T08:13:41;1.77;;;1.67;;
70560;SDS011;58109;53.570;10.084;2022-12-28T08:16:13;2.33;;;1.93;;
70560;SDS011;58109;53.570;10.084;2022-12-28T08:18:40;4.80;;;1.80;;
70560;SDS011;58109;53.570;10.084;2022-12-28T08:21:07;1.90;;;1.80;;
70560;SDS011;58109;53.570;10.084;2022-12-28T08:23:36;2.13;;;1.93;;
70560;SDS011;58109;53.570;10.084;2022-12-28T08:28:31;2.03;;;1.93;;
70560;SDS011;58109;53.570;10.084;2022-12-28T08:31:00;2.40;;;2.10;;
70560;SDS011;58109;53.570;10.084;2022-12-28T08:33:28;4.10;;;2.03;;
70560;SDS011;58109;53.570;10.084;2022-12-28T08:35:55;5.23;;;2.27;;
70560;SDS011;58109;53.570;10.084;2022-12-28T08:38:20;2.60;;;2.40;;
70560;SDS011;58109;53.570;10.084;2022-12-28T08:40:53;2.20;;;2.10;;
70560;SDS011;58109;53.570;10.084;2022-12-28T08:43:22;2.53;;;2.30;;
70560;SDS011;58109;53.570;10.084;2022-12-28T08:46:01;4.50;;;2.30;;
70560;SDS011;58109;53.570;10.084;2022-12-28T08:48:35;2.23;;;2.03;;
70560;SDS011;58109;53.570;10.084;2022-12-28T08:51:04;4.13;;;2.80;;
70560;SDS011;58109;53.570;10.084;2022-12-28T08:53:37;3.75;;;2.50;;
70560;SDS011;58109;53.570;10.084;2022-12-28T08:56:11;3.60;;;3.27;;
70560;SDS011;58109;53.570;10.084;2022-12-28T08:58:42;3.40;;;2.27;;
70560;SDS011;58109;53.570;10.084;2022-12-28T09:01:09;3.80;;;2.90;;
70560;SDS011;58109;53.570;10.084;2022-12-28T09:03:36;3.07;;;2.77;;
70560;SDS011;58109;53.570;10.084;2022-12-28T09:06:07;4.73;;;3.37;;
70560;SDS011;58109;53.570;10.084;2022-12-28T09:08:34;6.30;;;3.50;;
70560;SDS011;58109;53.570;10.084;2022-12-28T09:11:03;5.30;;;3.87;;
70560;SDS011;58109;53.570;10.084;2022-12-28T09:13:35;8.10;;;4.60;;
70560;SDS011;58109;53.570;10.084;2022-12-28T09:16:04;4.43;;;4.03;;
70560;SDS011;58109;53.570;10.084;2022-12-28T09:18:33;4.80;;;4.10;;
70560;SDS011;58109;53.570;10.084;2022-12-28T09:21:03;6.00;;;5.10;;
70560;SDS011;58109;53.570;10.084;2022-12-28T09:23:33;7.17;;;5.10;;
70560;SDS011;58109;53.570;10.084;2022-12-28T09:26:07;5.70;;;5.20;;
70560;SDS011;58109;53.570;10.084;2022-12-28T09:28:33;10.13;;;5.20;;
70560;SDS011;58109;53.570;10.084;2022-12-28T09:31:00;7.10;;;5.77;;
70560;SDS011;58109;53.570;10.084;2022-12-28T09:33:27;8.43;;;5.47;;
70560;SDS011;58109;53.570;10.084;2022-12-28T09:36:11;7.10;;;6.40;;
70560;SDS011;58109;53.570;10.084;2022-12-28T09:38:41;9.23;;;6.00;;
70560;SDS011;58109;53.570;10.084;2022-12-28T09:41:50;7.30;;;6.47;;
70560;SDS011;58109;53.570;10.084;2022-12-28T09:49:41;12.10;;;5.97;;
70560;SDS011;58109;53.570;10.084;2022-12-28T09:55:05;8.13;;;6.47;;
70560;SDS011;58109;53.570;10.084;2022-12-28T09:57:36;8.97;;;6.50;;
70560;SDS011;58109;53.570;10.084;2022-12-28T10:00:03;11.20;;;6.50;;
70560;SDS011;58109;53.570;10.084;2022-12-28T10:02:33;7.60;;;6.77;;
70560;SDS011;58109;53.570;10.084;2022-12-28T10:05:00;11.30;;;6.10;;
70560;SDS011;58109;53.570;10.084;2022-12-28T10:07:28;15.33;;;9.70;;
70560;SDS011;58109;53.570;10.084;2022-12-28T10:09:54;11.80;;;7.03;;
70560;SDS011;58109;53.570;10.084;2022-12-28T10:12:22;42.23;;;20.87;;
70560;SDS011;58109;53.570;10.084;2022-12-28T10:14:53;8.63;;;6.00;;
70560;SDS011;58109;53.570;10.084;2022-12-28T10:17:20;10.17;;;6.27;;
70560;SDS011;58109;53.570;10.084;2022-12-28T10:19:49;6.90;;;5.93;;
70560;SDS011;58109;53.570;10.084;2022-12-28T10:22:19;28.20;;;14.57;;
70560;SDS011;58109;53.570;10.084;2022-12-28T10:24:45;8.03;;;6.27;;
70560;SDS011;58109;53.570;10.084;2022-12-28T10:27:22;8.07;;;6.53;;
70560;SDS011;58109;53.570;10.084;2022-12-28T10:29:49;32.97;;;18.30;;
70560;SDS011;58109;53.570;10.084;2022-12-28T10:32:18;7.60;;;5.53;;
70560;SDS011;58109;53.570;10.084;2022-12-28T10:34:55;9.93;;;6.20;;
70560;SDS011;58109;53.570;10.084;2022-12-28T10:37:34;7.57;;;5.40;;
70560;SDS011;58109;53.570;10.084;2022-12-28T10:40:02;5.80;;;5.17;;
70560;SDS011;58109;53.570;10.084;2022-12-28T10:42:34;9.57;;;6.13;;
70560;SDS011;58109;53.570;10.084;2022-12-28T10:45:03;8.03;;;5.80;;
70560;SDS011;58109;53.570;10.084;2022-12-28T10:47:43;8.77;;;6.07;;
70560;SDS011;58109;53.570;10.084;2022-12-28T10:54:07;7.90;;;6.10;;
70560;SDS011;58109;53.570;10.084;2022-12-28T10:58:37;9.80;;;6.60;;
70560;SDS011;58109;53.570;10.084;2022-12-28T11:01:14;14.60;;;6.77;;
70560;SDS011;58109;53.570;10.084;2022-12-28T11:06:24;8.30;;;6.23;;
70560;SDS011;58109;53.570;10.084;2022-12-28T11:11:37;10.70;;;8.40;;
70560;SDS011;58109;53.570;10.084;2022-12-28T11:16:56;12.13;;;8.90;;
70560;SDS011;58109;53.570;10.084;2022-12-28T11:19:22;11.93;;;8.37;;
70560;SDS011;58109;53.570;10.084;2022-12-28T11:21:51;8.10;;;5.50;;
70560;SDS011;58109;53.570;10.084;2022-12-28T11:24:19;8.17;;;5.93;;
70560;SDS011;58109;53.570;10.084;2022-12-28T11:26:49;7.37;;;5.90;;
70560;SDS011;58109;53.570;10.084;2022-12-28T11:29:17;7.13;;;5.53;;
70560;SDS011;58109;53.570;10.084;2022-12-28T11:31:46;15.43;;;4.90;;
70560;SDS011;58109;53.570;10.084;2022-12-28T11:34:19;13.00;;;5.10;;
70560;SDS011;58109;53.570;10.084;2022-12-28T11:36:47;5.93;;;5.10;;
70560;SDS011;58109;53.570;10.084;2022-12-28T11:41:54;8.70;;;5.10;;
70560;SDS011;58109;53.570;10.084;2022-12-28T11:49:39;5.37;;;4.60;;
70560;SDS011;58109;53.570;10.084;2022-12-28T11:54:51;5.37;;;3.60;;
70560;SDS011;58109;53.570;10.084;2022-12-28T11:57:37;4.33;;;3.83;;
70560;SDS011;58109;53.570;10.084;2022-12-28T12:02:47;6.30;;;3.50;;
70560;SDS011;58109;53.570;10.084;2022-12-28T12:10:38;3.27;;;2.97;;
70560;SDS011;58109;53.570;10.084;2022-12-28T12:15:51;4.13;;;2.33;;
70560;SDS011;58109;53.570;10.084;2022-12-28T12:18:25;3.30;;;3.00;;
70560;SDS011;58109;53.570;10.084;2022-12-28T12:21:02;2.97;;;2.20;;
70560;SDS011;58109;53.570;10.084;2022-12-28T12:23:41;3.30;;;3.00;;
70560;SDS011;58109;53.570;10.084;2022-12-28T12:28:51;4.13;;;2.40;;
70560;SDS011;58109;53.570;10.084;2022-12-28T12:33:55;3.80;;;3.37;;
70560;SDS011;58109;53.570;10.084;2022-12-28T12:39:26;5.63;;;3.53;;
70560;SDS011;58109;53.570;10.084;2022-12-28T12:45:12;3.40;;;3.10;;
70560;SDS011;58109;53.570;10.084;2022-12-28T13:01:22;9.60;;;6.00;;
70560;SDS011;58109;53.570;10.084;2022-12-28T13:04:07;8.37;;;5.70;;
70560;SDS011;58109;53.570;10.084;2022-12-28T13:07:04;7.63;;;5.23;;
70560;SDS011;58109;53.570;10.084;2022-12-28T13:09:31;14.13;;;8.07;;
70560;SDS011;58109;53.570;10.084;2022-12-28T13:11:58;4.47;;;4.07;;
70560;SDS011;58109;53.570;10.084;2022-12-28T13:14:27;4.13;;;3.73;;
70560;SDS011;58109;53.570;10.084;2022-12-28T13:16:58;5.77;;;4.30;;
70560;SDS011;58109;53.570;10.084;2022-12-28T13:19:25;7.00;;;4.73;;
70560;SDS011;58109;53.570;10.084;2022-12-28T13:21:54;5.33;;;4.00;;
70560;SDS011;58109;53.570;10.084;2022-12-28T13:26:51;8.60;;;4.90;;
70560;SDS011;58109;53.570;10.084;2022-12-28T13:29:19;14.60;;;4.73;;
70560;SDS011;58109;53.570;10.084;2022-12-28T13:31:46;5.40;;;4.60;;
70560;SDS011;58109;53.570;10.084;2022-12-28T13:34:18;6.53;;;5.20;;
70560;SDS011;58109;53.570;10.084;2022-12-28T13:36:55;7.20;;;4.63;;
70560;SDS011;58109;53.570;10.084;2022-12-28T13:39:23;9.00;;;4.50;;
70560;SDS011;58109;53.570;10.084;2022-12-28T13:46:50;7.67;;;4.97;;
70560;SDS011;58109;53.570;10.084;2022-12-28T13:49:19;5.57;;;4.77;;
70560;SDS011;58109;53.570;10.084;2022-12-28T13:51:45;4.80;;;4.30;;
70560;SDS011;58109;53.570;10.084;2022-12-28T13:54:10;5.80;;;4.70;;
70560;SDS011;58109;53.570;10.084;2022-12-28T13:56:36;5.57;;;4.57;;
70560;SDS011;58109;53.570;10.084;2022-12-28T13:59:06;6.20;;;4.83;;
70560;SDS011;58109;53.570;10.084;2022-12-28T14:01:35;7.73;;;4.70;;
70560;SDS011;58109;53.570;10.084;2022-12-28T14:04:05;7.50;;;5.30;;
70560;SDS011;58109;53.570;10.084;2022-12-28T14:06:32;5.50;;;4.90;;
70560;SDS011;58109;53.570;10.084;2022-12-28T14:08:57;5.93;;;4.80;;
70560;SDS011;58109;53.570;10.084;2022-12-28T14:11:23;8.30;;;5.10;;
70560;SDS011;58109;53.570;10.084;2022-12-28T14:13:49;6.20;;;4.83;;
70560;SDS011;58109;53.570;10.084;2022-12-28T14:16:14;13.50;;;9.50;;
70560;SDS011;58109;53.570;10.084;2022-12-28T14:18:42;8.60;;;6.20;;
70560;SDS011;58109;53.570;10.084;2022-12-28T14:21:09;6.00;;;4.70;;
70560;SDS011;58109;53.570;10.084;2022-12-28T14:23:35;5.10;;;4.50;;
70560;SDS011;58109;53.570;10.084;2022-12-28T14:26:23;5.60;;;4.90;;
70560;SDS011;58109;53.570;10.084;2022-12-28T14:28:49;7.28;;;5.43;;
70560;SDS011;58109;53.570;10.084;2022-12-28T14:31:19;6.73;;;5.63;;
70560;SDS011;58109;53.570;10.084;2022-12-28T14:33:50;8.40;;;5.07;;
70560;SDS011;58109;53.570;10.084;2022-12-28T14:36:21;7.50;;;5.80;;
70560;SDS011;58109;53.570;10.084;2022-12-28T14:38:51;7.17;;;4.90;;
70560;SDS011;58109;53.570;10.084;2022-12-28T14:41:18;5.40;;;4.70;;
70560;SDS011;58109;53.570;10.084;2022-12-28T14:43:49;6.13;;;4.57;;
70560;SDS011;58109;53.570;10.084;2022-12-28T14:46:24;20.77;;;11.63;;
70560;SDS011;58109;53.570;10.084;2022-12-28T14:48:51;9.90;;;5.77;;
70560;SDS011;58109;53.570;10.084;2022-12-28T14:53:44;8.63;;;5.83;;
70560;SDS011;58109;53.570;10.084;2022-12-28T14:56:33;15.67;;;8.37;;
70560;SDS011;58109;53.570;10.084;2022-12-28T14:58:59;9.30;;;5.63;;
70560;SDS011;58109;53.570;10.084;2022-12-28T15:01:38;5.50;;;4.10;;
70560;SDS011;58109;53.570;10.084;2022-12-28T15:04:04;4.77;;;3.50;;
70560;SDS011;58109;53.570;10.084;2022-12-28T15:06:30;4.73;;;3.43;;
70560;SDS011;58109;53.570;10.084;2022-12-28T15:08:58;3.93;;;3.50;;
70560;SDS011;58109;53.570;10.084;2022-12-28T15:11:26;3.30;;;2.90;;
70560;SDS011;58109;53.570;10.084;2022-12-28T15:13:55;4.63;;;3.23;;
70560;SDS011;58109;53.570;10.084;2022-12-28T15:16:21;3.80;;;3.37;;
70560;SDS011;58109;53.570;10.084;2022-12-28T15:18:47;4.50;;;3.37;;
70560;SDS011;58109;53.570;10.084;2022-12-28T15:21:14;4.60;;;3.97;;
70560;SDS011;58109;53.570;10.084;2022-12-28T15:23:48;6.73;;;3.77;;
70560;SDS011;58109;53.570;10.084;2022-12-28T15:26:20;10.43;;;4.30;;
70560;SDS011;58109;53.570;10.084;2022-12-28T15:28:49;18.27;;;7.20;;
70560;SDS011;58109;53.570;10.084;2022-12-28T15:31:16;9.03;;;3.97;;
70560;SDS011;58109;53.570;10.084;2022-12-28T15:33:42;11.43;;;5.80;;
70560;SDS011;58109;53.570;10.084;2022-12-28T15:36:09;5.37;;;4.27;;
70560;SDS011;58109;53.570;10.084;2022-12-28T15:38:35;4.10;;;3.70;;
70560;SDS011;58109;53.570;10.084;2022-12-28T15:41:03;9.00;;;5.40;;
70560;SDS011;58109;53.570;10.084;2022-12-28T15:43:49;7.57;;;5.47;;
70560;SDS011;58109;53.570;10.084;2022-12-28T15:46:19;16.97;;;8.87;;
70560;SDS011;58109;53.570;10.084;2022-12-28T15:48:45;5.33;;;4.30;;
70560;SDS011;58109;53.570;10.084;2022-12-28T15:51:10;5.37;;;3.37;;
70560;SDS011;58109;53.570;10.084;2022-12-28T15:53:36;4.90;;;3.83;;
70560;SDS011;58109;53.570;10.084;2022-12-28T15:56:01;4.03;;;3.60;;
70560;SDS011;58109;53.570;10.084;2022-12-28T15:58:27;6.30;;;4.00;;
70560;SDS011;58109;53.570;10.084;2022-12-28T16:00:52;6.13;;;3.80;;
70560;SDS011;58109;53.570;10.084;2022-12-28T16:03:18;6.55;;;4.20;;
70560;SDS011;58109;53.570;10.084;2022-12-28T16:05:43;5.70;;;3.40;;
70560;SDS011;58109;53.570;10.084;2022-12-28T16:08:09;3.10;;;2.90;;
70560;SDS011;58109;53.570;10.084;2022-12-28T16:10:34;4.27;;;3.73;;
70560;SDS011;58109;53.570;10.084;2022-12-28T16:13:00;3.37;;;3.07;;
70560;SDS011;58109;53.570;10.084;2022-12-28T16:15:25;5.00;;;3.60;;
70560;SDS011;58109;53.570;10.084;2022-12-28T16:17:51;5.30;;;4.00;;
70560;SDS011;58109;53.570;10.084;2022-12-28T16:20:17;5.33;;;3.30;;
70560;SDS011;58109;53.570;10.084;2022-12-28T16:22:43;5.60;;;4.17;;
70560;SDS011;58109;53.570;10.084;2022-12-28T16:25:14;6.33;;;3.80;;
70560;SDS011;58109;53.570;10.084;2022-12-28T16:27:42;5.33;;;3.53;;
70560;SDS011;58109;53.570;10.084;2022-12-28T16:30:08;6.37;;;3.93;;
70560;SDS011;58109;53.570;10.084;2022-12-28T16:32:34;4.00;;;3.60;;
70560;SDS011;58109;53.570;10.084;2022-12-28T16:34:59;5.27;;;3.87;;
70560;SDS011;58109;53.570;10.084;2022-12-28T16:37:24;6.07;;;4.07;;
70560;SDS011;58109;53.570;10.084;2022-12-28T16:39:50;5.27;;;4.30;;
70560;SDS011;58109;53.570;10.084;2022-12-28T16:42:15;5.23;;;3.77;;
70560;SDS011;58109;53.570;10.084;2022-12-28T16:44:40;6.47;;;4.60;;
70560;SDS011;58109;53.570;10.084;2022-12-28T16:47:08;4.50;;;3.90;;
70560;SDS011;58109;53.570;10.084;2022-12-28T16:49:37;4.70;;;3.50;;